sensor_id;sensor_type;location;lat;lon;timestamp;temperature;humidity
6740;DHT22;3407;49.882;10.920;2024-01-15T00:01:44;-1.60;1.00
6740;DHT22;3407;49.882;10.920;2024-01-15T00:06:40;-1.60;99.90
6740;DHT22;3407;49.882;10.920;2024-01-15T00:11:35;-1.60;99.90
6740;DHT22;3407;49.882;10.920;2024-01-15T00:16:31;-1.60;1.00
6740;DHT22;3407;49.882;10.920;2024-01-15T00:21:26;-1.60;99.90
6740;DHT22;3407;49.882;10.920;2024-01-15T00:26:23;-1.60;99.90
6740;DHT22;3407;49.882;10.920;2024-01-15T00:31:18;-1.60;99.90
6740;DHT22;3407;49.882;10.920;2024-01-15T00:36:14;-1.60;1.00
6740;DHT22;3407;49.882;10.920;2024-01-15T00:41:10;-1.50;99.90
6740;DHT22;3407;49.882;10.920;2024-01-15T00:46:05;-1.50;1.00
6740;DHT22;3407;49.882;10.920;2024-01-15T00:51:01;-1.60;99.90
6740;DHT22;3407;49.882;10.920;2024-01-15T00:55:57;-1.60;99.90
6740;DHT22;3407;49.882;10.920;2024-01-15T01:00:52;-1.60;99.90
6740;DHT22;3407;49.882;10.920;2024-01-15T01:05:48;-1.60;99.90
6740;DHT22;3407;49.882;10.920;2024-01-15T01:10:45;-1.60;1.00
6740;DHT22;3407;49.882;10.920;2024-01-15T01:15:40;-1.50;81.60
6740;DHT22;3407;49.882;10.920;2024-01-15T01:20:36;-1.60;99.90
6740;DHT22;3407;49.882;10.920;2024-01-15T01:25:31;-1.60;1.00
6740;DHT22;3407;49.882;10.920;2024-01-15T01:30:27;-1.70;99.90
6740;DHT22;3407;49.882;10.920;2024-01-15T01:35:22;-1.70;88.90
6740;DHT22;3407;49.882;10.920;2024-01-15T01:40:18;-1.70;99.90
6740;DHT22;3407;49.882;10.920;2024-01-15T01:45:15;-1.70;99.90
6740;DHT22;3407;49.882;10.920;2024-01-15T01:50:11;-1.70;99.90
6740;DHT22;3407;49.882;10.920;2024-01-15T01:55:09;-1.60;99.90
6740;DHT22;3407;49.882;10.920;2024-01-15T02:00:06;-1.60;99.90
6740;DHT22;3407;49.882;10.920;2024-01-15T02:05:04;-1.70;1.00
6740;DHT22;3407;49.882;10.920;2024-01-15T02:10:00;-1.70;1.00
6740;DHT22;3407;49.882;10.920;2024-01-15T02:14:55;-1.70;97.20
6740;DHT22;3407;49.882;10.920;2024-01-15T02:19:51;-1.60;1.00
6740;DHT22;3407;49.882;10.920;2024-01-15T02:24:46;-1.50;48.10
6740;DHT22;3407;49.882;10.920;2024-01-15T02:29:42;-1.60;1.00
6740;DHT22;3407;49.882;10.920;2024-01-15T02:34:38;-1.60;1.00
6740;DHT22;3407;49.882;10.920;2024-01-15T02:39:33;-1.70;1.00
6740;DHT22;3407;49.882;10.920;2024-01-15T02:44:29;-1.60;99.90
6740;DHT22;3407;49.882;10.920;2024-01-15T02:49:24;-1.60;1.00
6740;DHT22;3407;49.882;10.920;2024-01-15T02:54:20;-1.60;99.90
6740;DHT22;3407;49.882;10.920;2024-01-15T02:59:15;-1.50;99.90
6740;DHT22;3407;49.882;10.920;2024-01-15T03:04:11;-1.50;1.00
6740;DHT22;3407;49.882;10.920;2024-01-15T03:09:06;-1.50;1.00
6740;DHT22;3407;49.882;10.920;2024-01-15T03:14:02;-1.50;74.80
6740;DHT22;3407;49.882;10.920;2024-01-15T03:18:57;-1.40;1.00
6740;DHT22;3407;49.882;10.920;2024-01-15T03:23:53;-1.40;99.90
6740;DHT22;3407;49.882;10.920;2024-01-15T03:28:48;-1.40;1.00
6740;DHT22;3407;49.882;10.920;2024-01-15T03:33:44;-1.40;99.90
6740;DHT22;3407;49.882;10.920;2024-01-15T03:38:42;-1.40;1.00
6740;DHT22;3407;49.882;10.920;2024-01-15T03:43:38;-1.40;1.00
6740;DHT22;3407;49.882;10.920;2024-01-15T03:48:33;-1.40;99.90
6740;DHT22;3407;49.882;10.920;2024-01-15T03:53:29;-1.30;1.00
6740;DHT22;3407;49.882;10.920;2024-01-15T03:58:24;-1.40;1.00
6740;DHT22;3407;49.882;10.920;2024-01-15T04:03:20;-1.40;99.90
6740;DHT22;3407;49.882;10.920;2024-01-15T04:08:15;-1.40;99.90
6740;DHT22;3407;49.882;10.920;2024-01-15T04:13:11;-1.40;1.00
6740;DHT22;3407;49.882;10.920;2024-01-15T04:18:06;-1.30;99.90
6740;DHT22;3407;49.882;10.920;2024-01-15T04:23:02;-1.30;99.90
6740;DHT22;3407;49.882;10.920;2024-01-15T04:27:57;-1.30;99.90
6740;DHT22;3407;49.882;10.920;2024-01-15T04:32:53;-1.30;99.90
6740;DHT22;3407;49.882;10.920;2024-01-15T04:37:48;-1.30;99.90
6740;DHT22;3407;49.882;10.920;2024-01-15T04:42:44;-1.20;1.00
6740;DHT22;3407;49.882;10.920;2024-01-15T04:47:41;-1.20;1.00
6740;DHT22;3407;49.882;10.920;2024-01-15T04:52:37;-1.10;1.00
6740;DHT22;3407;49.882;10.920;2024-01-15T04:57:33;-1.10;99.90
6740;DHT22;3407;49.882;10.920;2024-01-15T05:02:28;-1.10;1.00
6740;DHT22;3407;49.882;10.920;2024-01-15T05:07:24;-1.10;53.30
6740;DHT22;3407;49.882;10.920;2024-01-15T05:12:19;-1.10;99.90
6740;DHT22;3407;49.882;10.920;2024-01-15T05:17:15;-1.10;1.00
6740;DHT22;3407;49.882;10.920;2024-01-15T05:22:10;-1.10;99.90
6740;DHT22;3407;49.882;10.920;2024-01-15T05:27:06;-1.10;99.90
6740;DHT22;3407;49.882;10.920;2024-01-15T05:32:01;-1.10;1.00
6740;DHT22;3407;49.882;10.920;2024-01-15T05:36:57;-1.10;1.00
6740;DHT22;3407;49.882;10.920;2024-01-15T05:41:52;-1.10;99.90
6740;DHT22;3407;49.882;10.920;2024-01-15T05:46:48;-1.10;99.90
6740;DHT22;3407;49.882;10.920;2024-01-15T05:51:43;-1.10;99.90
6740;DHT22;3407;49.882;10.920;2024-01-15T05:56:39;-1.10;99.90
6740;DHT22;3407;49.882;10.920;2024-01-15T06:01:36;-1.10;99.90
6740;DHT22;3407;49.882;10.920;2024-01-15T06:06:31;-1.10;99.90
6740;DHT22;3407;49.882;10.920;2024-01-15T06:11:33;-1.00;50.20
6740;DHT22;3407;49.882;10.920;2024-01-15T06:16:29;-1.00;1.00
6740;DHT22;3407;49.882;10.920;2024-01-15T06:21:24;-1.00;99.90
6740;DHT22;3407;49.882;10.920;2024-01-15T06:26:20;-1.00;1.00
6740;DHT22;3407;49.882;10.920;2024-01-15T07:05:23;-1.20;1.00
6740;DHT22;3407;49.882;10.920;2024-01-15T07:10:19;-1.20;1.00
6740;DHT22;3407;49.882;10.920;2024-01-15T07:15:15;-1.10;1.00
6740;DHT22;3407;49.882;10.920;2024-01-15T07:20:11;-1.10;1.00
6740;DHT22;3407;49.882;10.920;2024-01-15T07:25:07;-1.10;1.00
6740;DHT22;3407;49.882;10.920;2024-01-15T07:30:02;-1.00;1.00
6740;DHT22;3407;49.882;10.920;2024-01-15T07:35:00;-0.90;1.00
6740;DHT22;3407;49.882;10.920;2024-01-15T07:39:56;-0.90;99.90
6740;DHT22;3407;49.882;10.920;2024-01-15T07:44:51;-0.80;99.90
6740;DHT22;3407;49.882;10.920;2024-01-15T07:49:47;-0.80;99.90
6740;DHT22;3407;49.882;10.920;2024-01-15T07:54:43;-0.80;99.90
6740;DHT22;3407;49.882;10.920;2024-01-15T07:59:38;-0.80;99.90
6740;DHT22;3407;49.882;10.920;2024-01-15T08:04:34;-0.80;99.90
6740;DHT22;3407;49.882;10.920;2024-01-15T08:09:29;-0.70;99.90
6740;DHT22;3407;49.882;10.920;2024-01-15T08:14:25;-0.70;99.90
6740;DHT22;3407;49.882;10.920;2024-01-15T08:19:20;-0.60;99.90
6740;DHT22;3407;49.882;10.920;2024-01-15T08:24:16;-0.60;99.90
6740;DHT22;3407;49.882;10.920;2024-01-15T08:29:12;-0.50;1.00
6740;DHT22;3407;49.882;10.920;2024-01-15T08:34:07;-0.40;1.00
6740;DHT22;3407;49.882;10.920;2024-01-15T08:39:03;-0.20;1.00
6740;DHT22;3407;49.882;10.920;2024-01-15T08:43:59;0.00;99.90
6740;DHT22;3407;49.882;10.920;2024-01-15T08:48:55;0.00;1.00
6740;DHT22;3407;49.882;10.920;2024-01-15T08:53:50;0.00;99.90
6740;DHT22;3407;49.882;10.920;2024-01-15T08:58:46;0.00;1.00
6740;DHT22;3407;49.882;10.920;2024-01-15T09:03:41;-0.10;99.90
6740;DHT22;3407;49.882;10.920;2024-01-15T09:08:38;0.00;1.00
6740;DHT22;3407;49.882;10.920;2024-01-15T09:13:33;0.10;99.90
6740;DHT22;3407;49.882;10.920;2024-01-15T09:18:29;0.10;1.00
6740;DHT22;3407;49.882;10.920;2024-01-15T09:23:25;0.10;1.00
6740;DHT22;3407;49.882;10.920;2024-01-15T09:28:20;0.30;99.90
6740;DHT22;3407;49.882;10.920;2024-01-15T09:33:16;0.20;32.30
6740;DHT22;3407;49.882;10.920;2024-01-15T09:38:11;0.30;1.00
6740;DHT22;3407;49.882;10.920;2024-01-15T09:43:07;0.40;1.00
6740;DHT22;3407;49.882;10.920;2024-01-15T09:48:03;0.40;19.70
6740;DHT22;3407;49.882;10.920;2024-01-15T09:52:59;0.50;39.00
6740;DHT22;3407;49.882;10.920;2024-01-15T09:57:55;0.60;99.90
6740;DHT22;3407;49.882;10.920;2024-01-15T10:02:51;0.60;1.00
6740;DHT22;3407;49.882;10.920;2024-01-15T10:07:48;0.50;88.60
6740;DHT22;3407;49.882;10.920;2024-01-15T10:12:45;0.60;99.90
6740;DHT22;3407;49.882;10.920;2024-01-15T10:17:41;0.70;1.00
6740;DHT22;3407;49.882;10.920;2024-01-15T10:22:44;0.90;1.00
6740;DHT22;3407;49.882;10.920;2024-01-15T10:27:43;0.90;99.90
6740;DHT22;3407;49.882;10.920;2024-01-15T10:32:38;0.90;1.00
6740;DHT22;3407;49.882;10.920;2024-01-15T10:37:34;1.00;1.00
6740;DHT22;3407;49.882;10.920;2024-01-15T10:42:30;1.00;1.00
6740;DHT22;3407;49.882;10.920;2024-01-15T10:47:26;1.00;99.90
6740;DHT22;3407;49.882;10.920;2024-01-15T10:52:22;0.90;99.90
6740;DHT22;3407;49.882;10.920;2024-01-15T10:57:19;0.90;1.00
6740;DHT22;3407;49.882;10.920;2024-01-15T11:02:16;0.80;1.00
6740;DHT22;3407;49.882;10.920;2024-01-15T11:07:13;0.90;99.90
6740;DHT22;3407;49.882;10.920;2024-01-15T11:12:11;1.00;99.90
6740;DHT22;3407;49.882;10.920;2024-01-15T11:17:07;1.10;1.00
6740;DHT22;3407;49.882;10.920;2024-01-15T11:22:03;1.00;99.90
6740;DHT22;3407;49.882;10.920;2024-01-15T11:27:00;1.10;1.00
6740;DHT22;3407;49.882;10.920;2024-01-15T11:31:56;1.00;1.00
6740;DHT22;3407;49.882;10.920;2024-01-15T11:41:48;1.20;1.00
6740;DHT22;3407;49.882;10.920;2024-01-15T11:47:00;1.40;99.90
6740;DHT22;3407;49.882;10.920;2024-01-15T11:51:58;1.50;1.00
6740;DHT22;3407;49.882;10.920;2024-01-15T11:56:57;1.60;1.00
6740;DHT22;3407;49.882;10.920;2024-01-15T12:01:54;1.70;99.90
6740;DHT22;3407;49.882;10.920;2024-01-15T12:06:50;1.60;1.00
6740;DHT22;3407;49.882;10.920;2024-01-15T12:11:54;1.60;99.90
6740;DHT22;3407;49.882;10.920;2024-01-15T12:16:54;1.50;1.00
6740;DHT22;3407;49.882;10.920;2024-01-15T12:21:54;1.60;1.00
6740;DHT22;3407;49.882;10.920;2024-01-15T12:26:50;1.80;99.90
6740;DHT22;3407;49.882;10.920;2024-01-15T12:31:48;1.80;99.90
6740;DHT22;3407;49.882;10.920;2024-01-15T12:36:46;1.90;99.90
6740;DHT22;3407;49.882;10.920;2024-01-15T12:41:42;1.90;99.90
6740;DHT22;3407;49.882;10.920;2024-01-15T12:46:37;1.80;99.90
6740;DHT22;3407;49.882;10.920;2024-01-15T12:51:34;1.70;99.90
6740;DHT22;3407;49.882;10.920;2024-01-15T12:56:30;1.80;99.90
6740;DHT22;3407;49.882;10.920;2024-01-15T13:01:25;1.70;73.20
6740;DHT22;3407;49.882;10.920;2024-01-15T13:06:21;1.70;2.50
6740;DHT22;3407;49.882;10.920;2024-01-15T13:11:16;1.80;86.20
6740;DHT22;3407;49.882;10.920;2024-01-15T13:16:13;1.90;1.00
6740;DHT22;3407;49.882;10.920;2024-01-15T13:21:08;2.10;1.00
6740;DHT22;3407;49.882;10.920;2024-01-15T13:26:04;2.10;1.00
6740;DHT22;3407;49.882;10.920;2024-01-15T13:31:01;2.00;1.00
6740;DHT22;3407;49.882;10.920;2024-01-15T13:35:56;1.90;1.00
6740;DHT22;3407;49.882;10.920;2024-01-15T13:40:52;2.20;1.00
6740;DHT22;3407;49.882;10.920;2024-01-15T13:45:47;1.60;1.00
6740;DHT22;3407;49.882;10.920;2024-01-15T13:50:43;1.60;99.90
6740;DHT22;3407;49.882;10.920;2024-01-15T13:55:38;1.60;99.90
6740;DHT22;3407;49.882;10.920;2024-01-15T14:00:34;1.60;99.90
6740;DHT22;3407;49.882;10.920;2024-01-15T14:05:30;1.60;99.90
6740;DHT22;3407;49.882;10.920;2024-01-15T14:10:25;1.60;99.90
6740;DHT22;3407;49.882;10.920;2024-01-15T14:15:21;1.50;99.90
6740;DHT22;3407;49.882;10.920;2024-01-15T14:20:17;1.40;99.90
6740;DHT22;3407;49.882;10.920;2024-01-15T14:25:13;1.30;1.00
6740;DHT22;3407;49.882;10.920;2024-01-15T14:30:09;1.30;1.00
6740;DHT22;3407;49.882;10.920;2024-01-15T14:35:05;1.40;99.90
6740;DHT22;3407;49.882;10.920;2024-01-15T14:40:04;1.40;99.90
6740;DHT22;3407;49.882;10.920;2024-01-15T14:45:05;1.40;1.00
6740;DHT22;3407;49.882;10.920;2024-01-15T14:50:08;1.50;99.90
6740;DHT22;3407;49.882;10.920;2024-01-15T14:55:05;1.40;1.00
6740;DHT22;3407;49.882;10.920;2024-01-15T15:00:01;1.20;99.90
6740;DHT22;3407;49.882;10.920;2024-01-15T15:04:57;1.00;1.00
6740;DHT22;3407;49.882;10.920;2024-01-15T15:09:53;0.80;11.90
6740;DHT22;3407;49.882;10.920;2024-01-15T15:14:49;0.70;99.90
6740;DHT22;3407;49.882;10.920;2024-01-15T15:19:44;0.60;99.90
6740;DHT22;3407;49.882;10.920;2024-01-15T15:24:40;0.60;99.90
6740;DHT22;3407;49.882;10.920;2024-01-15T15:29:35;0.60;99.90
6740;DHT22;3407;49.882;10.920;2024-01-15T15:34:31;0.50;99.90
6740;DHT22;3407;49.882;10.920;2024-01-15T15:39:26;0.50;99.90
6740;DHT22;3407;49.882;10.920;2024-01-15T15:44:22;0.50;99.90
6740;DHT22;3407;49.882;10.920;2024-01-15T15:49:18;0.50;99.90
6740;DHT22;3407;49.882;10.920;2024-01-15T15:54:13;0.50;99.90
6740;DHT22;3407;49.882;10.920;2024-01-15T15:59:08;0.60;98.60
6740;DHT22;3407;49.882;10.920;2024-01-15T16:04:04;0.60;37.70
6740;DHT22;3407;49.882;10.920;2024-01-15T16:09:00;0.60;62.60
6740;DHT22;3407;49.882;10.920;2024-01-15T16:13:55;0.60;99.90
6740;DHT22;3407;49.882;10.920;2024-01-15T16:18:51;0.60;63.00
6740;DHT22;3407;49.882;10.920;2024-01-15T16:23:46;0.60;16.90
6740;DHT22;3407;49.882;10.920;2024-01-15T16:28:42;0.60;1.00
6740;DHT22;3407;49.882;10.920;2024-01-15T16:33:37;0.60;1.00
6740;DHT22;3407;49.882;10.920;2024-01-15T16:38:33;0.60;1.00
6740;DHT22;3407;49.882;10.920;2024-01-15T16:43:28;0.60;1.00
6740;DHT22;3407;49.882;10.920;2024-01-15T16:48:24;0.60;1.00
6740;DHT22;3407;49.882;10.920;2024-01-15T16:53:20;0.60;1.00
6740;DHT22;3407;49.882;10.920;2024-01-15T16:58:15;0.60;99.90
6740;DHT22;3407;49.882;10.920;2024-01-15T17:03:11;0.50;1.00
6740;DHT22;3407;49.882;10.920;2024-01-15T17:08:06;0.60;99.90
6740;DHT22;3407;49.882;10.920;2024-01-15T17:13:02;0.60;28.50
6740;DHT22;3407;49.882;10.920;2024-01-15T17:17:59;0.60;99.90
6740;DHT22;3407;49.882;10.920;2024-01-15T17:22:54;0.60;1.00
6740;DHT22;3407;49.882;10.920;2024-01-15T17:27:50;0.70;99.90
6740;DHT22;3407;49.882;10.920;2024-01-15T17:32:45;0.70;1.00
6740;DHT22;3407;49.882;10.920;2024-01-15T17:37:41;0.80;58.20
6740;DHT22;3407;49.882;10.920;2024-01-15T17:42:36;0.80;99.90
6740;DHT22;3407;49.882;10.920;2024-01-15T17:47:32;0.70;1.00
6740;DHT22;3407;49.882;10.920;2024-01-15T17:52:28;0.70;99.90
6740;DHT22;3407;49.882;10.920;2024-01-15T17:57:24;0.60;1.00
6740;DHT22;3407;49.882;10.920;2024-01-15T18:02:20;0.50;99.90
6740;DHT22;3407;49.882;10.920;2024-01-15T18:07:15;0.50;99.90
6740;DHT22;3407;49.882;10.920;2024-01-15T18:12:12;0.50;99.90
6740;DHT22;3407;49.882;10.920;2024-01-15T18:17:07;0.50;1.00
6740;DHT22;3407;49.882;10.920;2024-01-15T18:22:04;0.50;1.00
6740;DHT22;3407;49.882;10.920;2024-01-15T18:27:00;0.40;99.90
6740;DHT22;3407;49.882;10.920;2024-01-15T18:31:58;0.50;99.90
6740;DHT22;3407;49.882;10.920;2024-01-15T18:36:53;0.50;1.00
6740;DHT22;3407;49.882;10.920;2024-01-15T18:41:49;0.50;1.00
6740;DHT22;3407;49.882;10.920;2024-01-15T18:46:45;0.60;1.00
6740;DHT22;3407;49.882;10.920;2024-01-15T18:51:41;0.70;1.00
6740;DHT22;3407;49.882;10.920;2024-01-15T18:56:40;0.70;99.90
6740;DHT22;3407;49.882;10.920;2024-01-15T19:01:36;0.70;99.90
6740;DHT22;3407;49.882;10.920;2024-01-15T19:06:31;0.70;1.00
6740;DHT22;3407;49.882;10.920;2024-01-15T19:11:27;0.70;1.00
6740;DHT22;3407;49.882;10.920;2024-01-15T19:16:22;0.70;99.90
6740;DHT22;3407;49.882;10.920;2024-01-15T19:21:18;0.70;31.70
6740;DHT22;3407;49.882;10.920;2024-01-15T19:26:20;0.60;1.00
6740;DHT22;3407;49.882;10.920;2024-01-15T19:31:16;0.50;1.00
6740;DHT22;3407;49.882;10.920;2024-01-15T19:36:24;0.50;99.90
6740;DHT22;3407;49.882;10.920;2024-01-15T19:41:20;0.50;1.00
6740;DHT22;3407;49.882;10.920;2024-01-15T19:46:19;0.50;1.00
6740;DHT22;3407;49.882;10.920;2024-01-15T19:51:15;0.50;1.00
6740;DHT22;3407;49.882;10.920;2024-01-15T19:56:10;0.50;1.00
6740;DHT22;3407;49.882;10.920;2024-01-15T20:01:08;0.60;1.00
6740;DHT22;3407;49.882;10.920;2024-01-15T20:06:03;0.60;99.90
6740;DHT22;3407;49.882;10.920;2024-01-15T20:11:06;0.60;99.90
6740;DHT22;3407;49.882;10.920;2024-01-15T20:16:10;0.60;1.00
6740;DHT22;3407;49.882;10.920;2024-01-15T20:21:05;0.70;28.00
6740;DHT22;3407;49.882;10.920;2024-01-15T20:26:03;0.70;1.00
6740;DHT22;3407;49.882;10.920;2024-01-15T20:30:59;0.70;1.00
6740;DHT22;3407;49.882;10.920;2024-01-15T20:35:54;0.80;99.90
6740;DHT22;3407;49.882;10.920;2024-01-15T20:40:50;0.70;99.90
6740;DHT22;3407;49.882;10.920;2024-01-15T20:45:45;0.70;1.00
6740;DHT22;3407;49.882;10.920;2024-01-15T20:50:41;0.70;1.00
6740;DHT22;3407;49.882;10.920;2024-01-15T20:55:37;0.70;50.90
6740;DHT22;3407;49.882;10.920;2024-01-15T21:00:32;0.70;1.00
6740;DHT22;3407;49.882;10.920;2024-01-15T21:05:28;0.70;1.00
6740;DHT22;3407;49.882;10.920;2024-01-15T21:10:25;0.70;1.00
6740;DHT22;3407;49.882;10.920;2024-01-15T21:15:20;0.70;1.00
6740;DHT22;3407;49.882;10.920;2024-01-15T21:20:16;0.70;1.00
6740;DHT22;3407;49.882;10.920;2024-01-15T21:25:11;0.80;79.80
6740;DHT22;3407;49.882;10.920;2024-01-15T21:30:07;0.70;1.00
6740;DHT22;3407;49.882;10.920;2024-01-15T21:35:03;0.70;1.00
6740;DHT22;3407;49.882;10.920;2024-01-15T21:39:59;0.70;1.00
6740;DHT22;3407;49.882;10.920;2024-01-15T21:44:55;0.70;98.30
6740;DHT22;3407;49.882;10.920;2024-01-15T21:49:50;0.60;86.00
6740;DHT22;3407;49.882;10.920;2024-01-15T21:54:46;0.60;1.00
6740;DHT22;3407;49.882;10.920;2024-01-15T21:59:41;0.70;99.90
6740;DHT22;3407;49.882;10.920;2024-01-15T22:04:37;0.70;1.00
6740;DHT22;3407;49.882;10.920;2024-01-15T22:09:33;0.70;1.00
6740;DHT22;3407;49.882;10.920;2024-01-15T22:14:29;0.70;1.00
6740;DHT22;3407;49.882;10.920;2024-01-15T22:19:24;0.60;1.00
6740;DHT22;3407;49.882;10.920;2024-01-15T22:24:20;0.70;1.00
6740;DHT22;3407;49.882;10.920;2024-01-15T22:29:15;0.70;99.90
6740;DHT22;3407;49.882;10.920;2024-01-15T22:34:12;0.70;79.60
6740;DHT22;3407;49.882;10.920;2024-01-15T22:39:09;0.70;1.00
6740;DHT22;3407;49.882;10.920;2024-01-15T22:44:04;0.70;99.90
6740;DHT22;3407;49.882;10.920;2024-01-15T22:49:00;0.70;1.00
6740;DHT22;3407;49.882;10.920;2024-01-15T22:53:55;0.70;1.00
6740;DHT22;3407;49.882;10.920;2024-01-15T22:58:51;0.70;99.90
6740;DHT22;3407;49.882;10.920;2024-01-15T23:03:46;0.70;73.70
6740;DHT22;3407;49.882;10.920;2024-01-15T23:08:41;0.70;1.00
6740;DHT22;3407;49.882;10.920;2024-01-15T23:13:41;0.70;99.90
6740;DHT22;3407;49.882;10.920;2024-01-15T23:18:37;0.70;99.90
6740;DHT22;3407;49.882;10.920;2024-01-15T23:23:33;0.70;99.90
6740;DHT22;3407;49.882;10.920;2024-01-15T23:28:29;0.60;1.00
6740;DHT22;3407;49.882;10.920;2024-01-15T23:33:25;0.60;99.90
6740;DHT22;3407;49.882;10.920;2024-01-15T23:38:20;0.60;99.90
6740;DHT22;3407;49.882;10.920;2024-01-15T23:43:16;0.60;1.00
6740;DHT22;3407;49.882;10.920;2024-01-15T23:48:11;0.60;1.00
6740;DHT22;3407;49.882;10.920;2024-01-15T23:53:07;0.50;99.90
6740;DHT22;3407;49.882;10.920;2024-01-15T23:58:03;0.50;1.00
